createdAt,value
2023-03-06T00:00:36.266Z,990.90
2023-03-06T00:01:36.230Z,990.90
2023-03-06T00:02:36.242Z,990.89
2023-03-06T00:03:36.263Z,990.90
2023-03-06T00:04:36.206Z,990.91
2023-03-06T00:05:36.266Z,990.87
2023-03-06T00:06:36.204Z,990.87
2023-03-06T00:07:36.175Z,990.85
2023-03-06T00:08:36.183Z,990.84
2023-03-06T00:09:36.158Z,990.85
2023-03-06T00:10:36.148Z,990.81
2023-03-06T00:11:36.143Z,990.83
2023-03-06T00:12:36.112Z,990.84
2023-03-06T00:13:36.119Z,990.86
2023-03-06T00:14:36.129Z,990.85
2023-03-06T00:15:36.079Z,990.83
2023-03-06T00:16:36.173Z,990.80
2023-03-06T00:17:36.048Z,990.81
2023-03-06T00:18:36.073Z,990.75
2023-03-06T00:19:36.068Z,990.76
2023-03-06T00:20:36.055Z,990.77
2023-03-06T00:21:36.021Z,990.76
2023-03-06T00:22:35.990Z,990.78
2023-03-06T00:23:35.990Z,990.77
2023-03-06T00:24:36.031Z,990.78
2023-03-06T00:25:35.980Z,990.71
2023-03-06T00:26:35.987Z,990.71
2023-03-06T00:27:35.963Z,990.73
2023-03-06T00:28:35.961Z,990.68
2023-03-06T00:29:35.909Z,990.72
2023-03-06T00:30:35.941Z,990.67
2023-03-06T00:31:35.975Z,990.73
2023-03-06T00:32:35.963Z,990.70
2023-03-06T00:33:35.929Z,990.64
2023-03-06T00:34:35.870Z,990.69
2023-03-06T00:35:35.961Z,990.70
2023-03-06T00:36:35.842Z,990.69
2023-03-06T00:37:35.840Z,990.67
2023-03-06T00:38:35.868Z,990.62
2023-03-06T00:39:35.831Z,990.59
2023-03-06T00:40:35.824Z,990.61
2023-03-06T00:41:35.787Z,990.59
2023-03-06T00:42:35.754Z,990.59
2023-03-06T00:43:35.780Z,990.58
2023-03-06T00:44:35.787Z,990.58
2023-03-06T00:45:35.774Z,990.52
2023-03-06T00:46:35.733Z,990.54
2023-03-06T00:47:35.705Z,990.56
2023-03-06T00:48:35.725Z,990.52
2023-03-06T00:49:35.683Z,990.55
2023-03-06T00:50:35.741Z,990.53
2023-03-06T00:51:35.647Z,990.50
2023-03-06T00:52:35.689Z,990.54
2023-03-06T00:53:35.649Z,990.52
2023-03-06T00:54:35.629Z,990.47
2023-03-06T00:55:35.651Z,990.45
2023-03-06T00:56:35.639Z,990.48
2023-03-06T00:57:35.631Z,990.44
2023-03-06T00:58:35.583Z,990.41
2023-03-06T00:59:35.562Z,990.41
2023-03-06T01:00:35.668Z,990.45
2023-03-06T01:01:35.578Z,990.38
2023-03-06T01:02:35.580Z,990.37
2023-03-06T01:03:35.521Z,990.38
2023-03-06T01:04:35.528Z,990.38
2023-03-06T01:05:35.527Z,990.37
2023-03-06T01:06:35.496Z,990.34
2023-03-06T01:07:35.458Z,990.30
2023-03-06T01:08:35.459Z,990.32
2023-03-06T01:09:35.464Z,990.33
2023-03-06T01:10:35.470Z,990.31
2023-03-06T01:11:35.439Z,990.37
2023-03-06T01:12:35.449Z,990.27
2023-03-06T01:13:35.414Z,990.32
2023-03-06T01:14:35.392Z,990.27
2023-03-06T01:15:35.458Z,990.29
2023-03-06T01:16:35.389Z,990.35
2023-03-06T01:17:35.379Z,990.34
2023-03-06T01:18:35.351Z,990.31
2023-03-06T01:19:35.349Z,990.30
2023-03-06T01:20:35.321Z,990.33
2023-03-06T01:21:35.365Z,990.26
2023-03-06T01:22:35.339Z,990.27
2023-03-06T01:23:35.292Z,990.31
2023-03-06T01:24:35.259Z,990.27
2023-03-06T01:25:35.248Z,990.28
2023-03-06T01:26:35.251Z,990.24
2023-03-06T01:27:35.300Z,990.23
2023-03-06T01:28:35.278Z,990.18
2023-03-06T01:29:35.198Z,990.20
2023-03-06T01:30:35.200Z,990.15
2023-03-06T01:31:35.300Z,990.20
2023-03-06T01:32:35.277Z,990.18
2023-03-06T01:33:35.168Z,990.11
2023-03-06T01:34:35.151Z,990.16
2023-03-06T01:35:35.152Z,990.15
2023-03-06T01:36:35.130Z,990.09
2023-03-06T01:37:35.181Z,990.08
2023-03-06T01:38:35.122Z,990.10
2023-03-06T01:39:35.118Z,990.11
2023-03-06T01:40:35.124Z,990.09
2023-03-06T01:41:35.096Z,990.04
2023-03-06T01:42:35.071Z,990.00
2023-03-06T01:43:35.105Z,990.06
2023-03-06T01:44:35.037Z,990.02
2023-03-06T01:45:35.092Z,990.09
2023-03-06T01:46:35.024Z,990.08
2023-03-06T01:47:35.017Z,990.10
2023-03-06T01:48:35.021Z,990.11
2023-03-06T01:49:35.052Z,990.11
2023-03-06T01:50:34.992Z,990.06
2023-03-06T01:51:34.962Z,990.05
2023-03-06T01:52:34.949Z,990.06
2023-03-06T01:53:34.962Z,990.11
2023-03-06T01:54:34.966Z,990.04
2023-03-06T01:55:34.970Z,990.03
2023-03-06T01:56:34.899Z,990.04
2023-03-06T01:57:34.906Z,990.03
2023-03-06T01:58:34.922Z,990.01
2023-03-06T01:59:34.879Z,990.06
2023-03-06T02:00:34.866Z,990.00
2023-03-06T02:01:34.884Z,990.01
2023-03-06T02:02:34.895Z,989.99
2023-03-06T02:03:34.874Z,989.96
2023-03-06T02:04:34.814Z,989.92
2023-03-06T02:05:34.791Z,989.91
2023-03-06T02:06:34.838Z,989.91
2023-03-06T02:07:34.763Z,989.90
2023-03-06T02:08:34.794Z,989.92
2023-03-06T02:09:34.770Z,989.91
2023-03-06T02:10:34.763Z,989.89
2023-03-06T02:11:34.815Z,989.89
2023-03-06T02:12:34.758Z,989.88
2023-03-06T02:13:34.717Z,989.90
2023-03-06T02:14:34.715Z,989.89
2023-03-06T02:15:34.694Z,989.84
2023-03-06T02:16:34.700Z,989.86
2023-03-06T02:17:34.694Z,989.85
2023-03-06T02:18:34.655Z,989.82
2023-03-06T02:19:34.664Z,989.82
2023-03-06T02:20:34.625Z,989.78
2023-03-06T02:21:34.633Z,989.76
2023-03-06T02:22:34.628Z,989.75
2023-03-06T02:23:34.586Z,989.77
2023-03-06T02:24:34.574Z,989.79
2023-03-06T02:25:34.620Z,989.79
2023-03-06T02:26:34.561Z,989.82
2023-03-06T02:27:34.578Z,989.76
2023-03-06T02:28:34.529Z,989.90
2023-03-06T02:29:34.552Z,989.82
2023-03-06T02:30:34.556Z,989.81
2023-03-06T02:31:34.512Z,989.82
2023-03-06T02:32:34.534Z,989.78
2023-03-06T02:33:34.476Z,989.81
2023-03-06T02:34:34.522Z,989.73
2023-03-06T02:35:34.532Z,989.75
2023-03-06T02:36:34.440Z,989.69
2023-03-06T02:37:34.430Z,989.76
2023-03-06T02:38:34.419Z,989.76
2023-03-06T02:39:34.478Z,989.80
2023-03-06T02:40:34.413Z,989.70
2023-03-06T02:41:34.395Z,989.72
2023-03-06T02:42:34.394Z,989.56
2023-03-06T02:43:34.373Z,989.63
2023-03-06T02:44:34.385Z,989.62
2023-03-06T02:45:34.403Z,989.58
2023-03-06T02:46:34.371Z,989.58
2023-03-06T02:47:34.310Z,989.57
2023-03-06T02:48:34.313Z,989.59
2023-03-06T02:49:34.321Z,989.56
2023-03-06T02:50:34.304Z,989.55
2023-03-06T02:51:34.343Z,989.58
2023-03-06T02:52:34.302Z,989.54
2023-03-06T02:53:34.264Z,989.50
2023-03-06T02:54:34.252Z,989.48
2023-03-06T02:55:34.251Z,989.50
2023-03-06T02:56:34.202Z,989.46
2023-03-06T02:57:34.238Z,989.48
2023-03-06T02:58:34.222Z,989.44
2023-03-06T02:59:34.192Z,989.45
2023-03-06T03:00:34.328Z,989.46
2023-03-06T03:01:34.213Z,989.42
2023-03-06T03:02:34.151Z,989.40
2023-03-06T03:03:34.127Z,989.38
2023-03-06T03:04:34.197Z,989.38
2023-03-06T03:05:34.107Z,989.36
2023-03-06T03:06:34.120Z,989.38
2023-03-06T03:07:34.107Z,989.36
2023-03-06T03:08:34.084Z,989.40
2023-03-06T03:09:34.078Z,989.37
2023-03-06T03:10:34.054Z,989.37
2023-03-06T03:11:34.050Z,989.38
2023-03-06T03:12:34.077Z,989.38
2023-03-06T03:13:34.028Z,989.38
2023-03-06T03:14:34.013Z,989.41
2023-03-06T03:15:34.068Z,989.39
2023-03-06T03:16:34.024Z,989.40
2023-03-06T03:17:33.980Z,989.35
2023-03-06T03:18:33.988Z,989.33
2023-03-06T03:19:33.953Z,989.30
2023-03-06T03:20:33.960Z,989.26
2023-03-06T03:21:33.933Z,989.26
2023-03-06T03:22:34.074Z,989.21
2023-03-06T03:23:33.906Z,989.21
2023-03-06T03:24:33.894Z,989.21
2023-03-06T03:25:33.897Z,989.17
2023-03-06T03:26:33.893Z,989.15
2023-03-06T03:27:33.879Z,989.14
2023-03-06T03:28:33.908Z,989.20
2023-03-06T03:29:33.848Z,989.19
2023-03-06T03:30:33.830Z,989.17
2023-03-06T03:31:33.850Z,989.19
2023-03-06T03:32:33.829Z,989.16
2023-03-06T03:33:33.860Z,989.14
2023-03-06T03:34:33.775Z,989.15
2023-03-06T03:35:33.804Z,989.12
2023-03-06T03:36:33.773Z,989.10
2023-03-06T03:37:33.760Z,989.09
2023-03-06T03:38:33.782Z,989.14
2023-03-06T03:39:33.741Z,989.10
2023-03-06T03:40:33.724Z,989.11
2023-03-06T03:41:33.754Z,989.14
2023-03-06T03:42:33.682Z,989.06
2023-03-06T03:43:33.709Z,989.08
2023-03-06T03:44:33.677Z,989.15
2023-03-06T03:45:33.695Z,989.05
2023-03-06T03:46:33.663Z,989.06
2023-03-06T03:47:33.685Z,989.00
2023-03-06T03:48:33.676Z,988.99
2023-03-06T03:49:33.619Z,988.97
2023-03-06T03:50:33.626Z,988.98
2023-03-06T03:51:33.603Z,989.05
2023-03-06T03:52:33.591Z,989.03
2023-03-06T03:53:33.587Z,989.02
2023-03-06T03:54:33.610Z,989.01
2023-03-06T03:55:33.554Z,989.05
2023-03-06T03:56:33.535Z,988.97
2023-03-06T03:57:33.531Z,988.95
2023-03-06T03:58:33.521Z,988.94
2023-03-06T03:59:33.515Z,988.95
2023-03-06T04:00:33.500Z,988.91
2023-03-06T04:01:33.527Z,988.91
2023-03-06T04:02:33.471Z,988.82
2023-03-06T04:03:33.462Z,988.83
2023-03-06T04:04:33.466Z,988.78
2023-03-06T04:05:33.435Z,988.83
2023-03-06T04:06:33.439Z,988.77
2023-03-06T04:07:33.406Z,988.75
2023-03-06T04:08:33.412Z,988.77
2023-03-06T04:09:33.421Z,988.75
2023-03-06T04:10:33.409Z,988.76
2023-03-06T04:11:33.392Z,988.76
2023-03-06T04:12:33.356Z,988.72
2023-03-06T04:13:33.347Z,988.71
2023-03-06T04:14:33.340Z,988.73
2023-03-06T04:15:33.371Z,988.68
2023-03-06T04:16:33.361Z,988.68
2023-03-06T04:17:33.321Z,988.70
2023-03-06T04:18:33.272Z,988.67
2023-03-06T04:19:33.311Z,988.68
2023-03-06T04:20:33.290Z,988.66
2023-03-06T04:21:33.224Z,988.69
2023-03-06T04:22:33.272Z,988.56
2023-03-06T04:23:33.254Z,988.56
2023-03-06T04:24:33.194Z,988.52
2023-03-06T04:25:33.207Z,988.52
2023-03-06T04:26:33.233Z,988.55
2023-03-06T04:27:33.177Z,988.55
2023-03-06T04:28:33.199Z,988.58
2023-03-06T04:29:33.146Z,988.56
2023-03-06T04:30:33.133Z,988.56
2023-03-06T04:31:33.216Z,988.53
2023-03-06T04:32:33.210Z,988.55
2023-03-06T04:33:33.145Z,988.53
2023-03-06T04:34:33.078Z,988.51
2023-03-06T04:35:33.121Z,988.48
2023-03-06T04:36:33.098Z,988.50
2023-03-06T04:37:33.081Z,988.47
2023-03-06T04:38:33.162Z,988.43
2023-03-06T04:39:33.040Z,988.43
2023-03-06T04:40:33.073Z,988.40
2023-03-06T04:41:32.999Z,988.36
2023-03-06T04:42:33.019Z,988.32
2023-03-06T04:43:32.981Z,988.28
2023-03-06T04:44:32.978Z,988.34
2023-03-06T04:45:33.136Z,988.35
2023-03-06T04:46:32.987Z,988.36
2023-03-06T04:47:32.930Z,988.33
2023-03-06T04:48:32.945Z,988.31
2023-03-06T04:49:32.971Z,988.31
2023-03-06T04:50:32.917Z,988.32
2023-03-06T04:51:32.913Z,988.26
2023-03-06T04:52:32.879Z,988.29
2023-03-06T04:53:32.876Z,988.25
2023-03-06T04:54:32.852Z,988.32
2023-03-06T04:55:32.858Z,988.30
2023-03-06T04:56:32.850Z,988.28
2023-03-06T04:57:32.832Z,988.30
2023-03-06T04:58:32.819Z,988.28
2023-03-06T04:59:32.792Z,988.30
2023-03-06T05:00:32.820Z,988.22
2023-03-06T05:01:32.817Z,988.23
2023-03-06T05:02:32.786Z,988.24
2023-03-06T05:03:32.755Z,988.22
2023-03-06T05:04:32.742Z,988.22
2023-03-06T05:05:32.744Z,988.17
2023-03-06T05:06:32.714Z,988.15
2023-03-06T05:07:32.762Z,988.16
2023-03-06T05:08:32.714Z,988.11
2023-03-06T05:09:32.706Z,988.08
2023-03-06T05:10:32.672Z,988.09
2023-03-06T05:11:32.683Z,988.07
2023-03-06T05:12:32.653Z,988.05
2023-03-06T05:13:32.689Z,988.11
2023-03-06T05:14:32.657Z,988.06
2023-03-06T05:15:32.615Z,988.09
2023-03-06T05:16:32.620Z,988.08
2023-03-06T05:17:32.611Z,988.15
2023-03-06T05:18:32.606Z,988.13
2023-03-06T05:19:32.608Z,988.12
2023-03-06T05:20:32.575Z,988.14
2023-03-06T05:21:32.541Z,988.09
2023-03-06T05:22:32.520Z,988.12
2023-03-06T05:23:32.523Z,988.12
2023-03-06T05:24:32.540Z,988.10
2023-03-06T05:25:32.496Z,988.05
2023-03-06T05:26:32.481Z,988.08
2023-03-06T05:27:32.462Z,988.03
2023-03-06T05:28:32.453Z,988.04
2023-03-06T05:29:32.477Z,988.07
2023-03-06T05:30:32.461Z,988.04
2023-03-06T05:31:32.459Z,988.04
2023-03-06T05:32:34.473Z,988.03
2023-03-06T05:33:32.403Z,988.04
2023-03-06T05:34:32.379Z,987.99
2023-03-06T05:35:32.459Z,988.00
2023-03-06T05:36:32.402Z,988.01
2023-03-06T05:37:32.376Z,987.93
2023-03-06T05:38:32.346Z,988.01
2023-03-06T05:39:32.339Z,987.94
2023-03-06T05:40:32.376Z,987.94
2023-03-06T05:41:32.327Z,987.92
2023-03-06T05:42:32.298Z,987.95
2023-03-06T05:43:32.300Z,987.93
2023-03-06T05:44:32.298Z,988.02
2023-03-06T05:45:32.311Z,988.01
2023-03-06T05:46:32.247Z,987.97
2023-03-06T05:47:32.251Z,987.95
2023-03-06T05:48:32.231Z,987.98
2023-03-06T05:49:32.224Z,987.94
2023-03-06T05:50:32.260Z,988.00
2023-03-06T05:51:32.206Z,987.92
2023-03-06T05:52:32.198Z,987.99
2023-03-06T05:53:32.193Z,987.93
2023-03-06T05:54:32.182Z,987.95
2023-03-06T05:55:32.183Z,987.96
2023-03-06T05:56:32.193Z,987.96
2023-03-06T05:57:32.137Z,987.95
2023-03-06T05:58:32.122Z,988.03
2023-03-06T05:59:32.121Z,987.99
2023-03-06T06:00:32.104Z,987.99
2023-03-06T06:01:32.071Z,987.99
2023-03-06T06:02:32.126Z,988.02
2023-03-06T06:03:32.068Z,988.08
2023-03-06T06:04:32.062Z,988.04
2023-03-06T06:05:32.028Z,988.06
2023-03-06T06:06:32.030Z,988.03
2023-03-06T06:07:32.077Z,988.01
2023-03-06T06:08:32.002Z,988.04
2023-03-06T06:09:31.980Z,988.04
2023-03-06T06:10:31.973Z,987.99
2023-03-06T06:11:31.989Z,988.03
2023-03-06T06:12:32.007Z,987.97
2023-03-06T06:13:31.930Z,988.00
2023-03-06T06:14:31.944Z,988.01
2023-03-06T06:15:31.946Z,987.97
2023-03-06T06:16:31.935Z,987.99
2023-03-06T06:17:31.904Z,987.98
2023-03-06T06:18:31.911Z,987.97
2023-03-06T06:19:31.909Z,987.99
2023-03-06T06:20:31.893Z,987.90
2023-03-06T06:21:31.841Z,987.88
2023-03-06T06:22:31.837Z,987.85
2023-03-06T06:23:31.847Z,987.76
2023-03-06T06:24:31.863Z,987.75
2023-03-06T06:25:31.813Z,987.79
2023-03-06T06:26:31.797Z,987.77
2023-03-06T06:27:31.809Z,987.77
2023-03-06T06:28:31.785Z,987.75
2023-03-06T06:29:31.838Z,987.71
2023-03-06T06:30:31.759Z,987.76
2023-03-06T06:31:31.774Z,987.73
2023-03-06T06:32:31.788Z,987.71
2023-03-06T06:33:31.710Z,987.68
2023-03-06T06:34:31.731Z,987.68
2023-03-06T06:35:31.710Z,987.67
2023-03-06T06:36:31.702Z,987.72
2023-03-06T06:37:31.685Z,987.68
2023-03-06T06:38:31.658Z,987.74
2023-03-06T06:39:31.648Z,987.71
2023-03-06T06:40:31.712Z,987.73
2023-03-06T06:41:50.717Z,987.68
2023-03-06T06:42:39.001Z,987.75
2023-03-06T06:43:32.587Z,987.70
2023-03-06T06:44:31.618Z,987.70
2023-03-06T06:45:31.603Z,987.70
2023-03-06T06:47:18.194Z,987.74
2023-03-06T06:47:32.601Z,987.73
2023-03-06T06:48:31.531Z,987.70
2023-03-06T06:49:31.568Z,987.74
2023-03-06T06:50:31.557Z,987.67
2023-03-06T06:51:31.540Z,987.71
2023-03-06T06:52:31.479Z,987.74
2023-03-06T06:53:32.500Z,987.73
2023-03-06T06:54:31.466Z,987.72
2023-03-06T06:55:31.486Z,987.72
2023-03-06T06:56:31.494Z,987.77
2023-03-06T06:57:31.491Z,987.71
2023-03-06T06:58:31.441Z,987.77
2023-03-06T06:59:31.405Z,987.73
2023-03-06T07:00:31.401Z,987.72
2023-03-06T07:01:31.552Z,987.73
2023-03-06T07:02:31.431Z,987.75
2023-03-06T07:03:31.490Z,987.78
2023-03-06T07:04:31.406Z,987.71
2023-03-06T07:05:31.334Z,987.71
2023-03-06T07:06:31.337Z,987.69
2023-03-06T07:07:31.371Z,987.67
2023-03-06T07:08:31.301Z,987.73
2023-03-06T07:09:31.320Z,987.72
2023-03-06T07:10:31.271Z,987.67
2023-03-06T07:11:31.303Z,987.74
2023-03-06T07:12:31.251Z,987.72
2023-03-06T07:13:31.314Z,987.75
2023-03-06T07:14:32.275Z,987.77
2023-03-06T07:15:31.220Z,987.79
2023-03-06T07:16:31.219Z,987.67
2023-03-06T07:17:31.233Z,987.79
2023-03-06T07:18:31.265Z,987.80
2023-03-06T07:19:31.192Z,987.76
2023-03-06T07:20:31.173Z,987.76
2023-03-06T07:21:31.156Z,987.74
2023-03-06T07:22:38.704Z,987.71
2023-03-06T07:23:32.161Z,987.74
2023-03-06T07:24:31.132Z,987.77
2023-03-06T07:25:31.148Z,987.77
2023-03-06T07:26:33.510Z,987.74
2023-03-06T07:27:31.156Z,987.80
2023-03-06T07:28:37.605Z,987.75
2023-03-06T07:29:32.194Z,987.78
2023-03-06T07:30:31.044Z,987.83
2023-03-06T07:31:31.180Z,987.80
2023-03-06T07:32:31.155Z,987.72
2023-03-06T07:33:31.028Z,987.70
2023-03-06T07:34:31.049Z,987.74
2023-03-06T07:35:31.003Z,987.72
2023-03-06T07:36:30.974Z,987.70
2023-03-06T07:37:32.053Z,987.70
2023-03-06T07:38:30.988Z,987.72
2023-03-06T07:39:30.944Z,987.69
2023-03-06T07:40:30.962Z,987.71
2023-03-06T07:41:30.996Z,987.70
2023-03-06T07:42:30.976Z,987.71
2023-03-06T07:43:30.917Z,987.73
2023-03-06T07:44:30.921Z,987.66
2023-03-06T07:45:30.893Z,987.66
2023-03-06T07:46:30.960Z,987.72
2023-03-06T07:47:30.869Z,987.73
2023-03-06T07:48:30.913Z,987.68
2023-03-06T07:49:33.893Z,987.68
2023-03-06T07:50:30.812Z,987.71
2023-03-06T07:51:30.816Z,987.67
2023-03-06T07:52:30.793Z,987.70
2023-03-06T07:53:30.839Z,987.64
2023-03-06T07:54:30.823Z,987.65
2023-03-06T07:55:30.760Z,987.60
2023-03-06T07:56:30.760Z,987.66
2023-03-06T07:57:30.781Z,987.66
2023-03-06T07:58:30.748Z,987.66
2023-03-06T07:59:30.779Z,987.66
2023-03-06T08:00:30.714Z,987.63
2023-03-06T08:01:30.738Z,987.63
2023-03-06T08:02:30.690Z,987.61
2023-03-06T08:03:30.714Z,987.63
2023-03-06T08:04:30.657Z,987.64
2023-03-06T08:05:30.651Z,987.61
2023-03-06T08:06:30.663Z,987.64
2023-03-06T08:07:30.699Z,987.60
2023-03-06T08:08:30.641Z,987.65
2023-03-06T08:09:30.624Z,987.57
2023-03-06T08:10:30.606Z,987.66
2023-03-06T08:11:30.626Z,987.63
2023-03-06T08:12:30.562Z,987.61
2023-03-06T08:13:30.644Z,987.56
2023-03-06T08:14:30.599Z,987.60
2023-03-06T08:15:30.607Z,987.58
2023-03-06T08:16:30.671Z,987.60
2023-03-06T08:17:30.519Z,987.61
2023-03-06T08:18:30.551Z,987.57
2023-03-06T08:19:30.499Z,987.62
2023-03-06T08:20:30.519Z,987.59
2023-03-06T08:21:30.506Z,987.65
2023-03-06T08:22:30.510Z,987.60
2023-03-06T08:23:30.465Z,987.60
2023-03-06T08:24:30.433Z,987.58
2023-03-06T08:25:30.417Z,987.62
2023-03-06T08:26:30.409Z,987.58
2023-03-06T08:27:30.459Z,987.58
2023-03-06T08:28:30.377Z,987.57
2023-03-06T08:29:32.088Z,987.60
2023-03-06T08:30:30.347Z,987.61
2023-03-06T08:31:30.399Z,987.60
2023-03-06T08:32:30.441Z,987.62
2023-03-06T08:33:30.360Z,987.62
2023-03-06T08:34:30.298Z,987.63
2023-03-06T08:35:30.415Z,987.62
2023-03-06T08:36:30.278Z,987.62
2023-03-06T08:37:30.381Z,987.62
2023-03-06T08:38:30.265Z,987.62
2023-03-06T08:39:30.302Z,987.61
2023-03-06T08:40:30.317Z,987.64
2023-03-06T08:41:30.230Z,987.58
2023-03-06T08:42:30.205Z,987.59
2023-03-06T08:43:30.389Z,987.62
2023-03-06T08:44:30.298Z,987.59
2023-03-06T08:45:30.195Z,987.63
2023-03-06T08:46:30.164Z,987.55
2023-03-06T08:47:30.201Z,987.59
2023-03-06T08:48:30.138Z,987.59
2023-03-06T08:49:30.157Z,987.59
2023-03-06T08:50:30.151Z,987.66
2023-03-06T08:51:30.140Z,987.63
2023-03-06T08:52:30.090Z,987.60
2023-03-06T08:53:42.081Z,987.59
2023-03-06T08:54:31.150Z,987.62
2023-03-06T08:55:30.062Z,987.62
2023-03-06T08:56:31.070Z,987.62
2023-03-06T08:57:30.076Z,987.62
2023-03-06T08:58:30.087Z,987.63
2023-03-06T08:59:30.026Z,987.64
2023-03-06T09:00:30.048Z,987.65
2023-03-06T09:01:30.000Z,987.63
2023-03-06T09:02:30.034Z,987.68
2023-03-06T09:03:29.991Z,987.69
2023-03-06T09:04:29.941Z,987.68
2023-03-06T09:05:29.940Z,987.70
2023-03-06T09:06:29.946Z,987.75
2023-03-06T09:07:29.989Z,987.73
2023-03-06T09:08:29.896Z,987.76
2023-03-06T09:09:29.873Z,987.77
2023-03-06T09:10:30.991Z,987.81
2023-03-06T09:11:29.866Z,987.77
2023-03-06T09:12:32.672Z,987.78
2023-03-06T09:13:30.886Z,987.80
2023-03-06T09:14:29.876Z,987.78
2023-03-06T09:15:29.823Z,987.77
2023-03-06T09:16:29.861Z,987.78
2023-03-06T09:17:29.856Z,987.79
2023-03-06T09:18:29.793Z,987.83
2023-03-06T09:19:29.800Z,987.80
2023-03-06T09:20:29.984Z,987.80
2023-03-06T09:21:32.807Z,987.82
2023-03-06T09:22:29.746Z,987.79
2023-03-06T09:23:29.760Z,987.83
2023-03-06T09:24:29.758Z,987.86
2023-03-06T09:25:29.734Z,987.76
2023-03-06T09:26:43.460Z,987.84
2023-03-06T09:27:30.685Z,987.86
2023-03-06T09:28:29.668Z,987.80
2023-03-06T09:29:29.665Z,987.85
2023-03-06T09:30:29.734Z,987.83
2023-03-06T09:31:29.655Z,987.83
2023-03-06T09:32:29.760Z,987.79
2023-03-06T09:33:29.668Z,987.76
2023-03-06T09:34:29.616Z,987.73
2023-03-06T09:35:29.886Z,987.84
2023-03-06T09:36:29.902Z,987.83
2023-03-06T09:37:29.607Z,987.80
2023-03-06T09:38:29.613Z,987.75
2023-03-06T09:39:29.577Z,987.74
2023-03-06T09:40:29.544Z,987.75
2023-03-06T09:41:29.518Z,987.72
2023-03-06T09:42:29.504Z,987.79
2023-03-06T09:43:29.527Z,987.76
2023-03-06T09:44:29.520Z,987.75
2023-03-06T09:45:29.473Z,987.74
2023-03-06T09:46:29.511Z,987.70
2023-03-06T09:47:29.475Z,987.75
2023-03-06T09:48:29.452Z,987.74
2023-03-06T09:49:29.427Z,987.70
2023-03-06T09:50:29.467Z,987.68
2023-03-06T09:51:29.436Z,987.73
2023-03-06T09:52:29.493Z,987.71
2023-03-06T09:53:29.637Z,987.68
2023-03-06T09:54:29.362Z,987.65
2023-03-06T09:55:29.411Z,987.68
2023-03-06T09:56:29.333Z,987.66
2023-03-06T09:57:29.346Z,987.71
2023-03-06T09:58:29.355Z,987.70
2023-03-06T09:59:29.332Z,987.70
2023-03-06T10:00:29.384Z,987.71
2023-03-06T10:01:29.336Z,987.73
2023-03-06T10:02:29.324Z,987.74
2023-03-06T10:03:29.324Z,987.75
2023-03-06T10:04:29.311Z,987.69
2023-03-06T10:05:29.260Z,987.74
2023-03-06T10:06:29.338Z,987.72
2023-03-06T10:07:29.236Z,987.76
2023-03-06T10:08:29.208Z,987.74
2023-03-06T10:09:29.188Z,987.73
2023-03-06T10:10:29.195Z,987.72
2023-03-06T10:11:29.224Z,987.72
2023-03-06T10:12:29.444Z,987.68
2023-03-06T10:13:29.144Z,987.64
2023-03-06T10:14:29.169Z,987.68
2023-03-06T10:15:29.195Z,987.69
2023-03-06T10:16:29.111Z,987.67
2023-03-06T10:17:29.159Z,987.63
2023-03-06T10:18:29.171Z,987.67
2023-03-06T10:19:29.080Z,987.62
2023-03-06T10:20:29.079Z,987.62
2023-03-06T10:21:29.057Z,987.67
2023-03-06T10:22:29.050Z,987.66
2023-03-06T10:23:29.082Z,987.63
2023-03-06T10:24:29.043Z,987.68
2023-03-06T10:25:29.074Z,987.69
2023-03-06T10:26:29.118Z,987.64
2023-03-06T10:27:29.025Z,987.65
2023-03-06T10:28:28.981Z,987.69
2023-03-06T10:29:29.027Z,987.69
2023-03-06T10:30:28.969Z,987.64
2023-03-06T10:31:29.098Z,987.61
2023-03-06T10:32:32.194Z,987.64
2023-03-06T10:33:29.938Z,987.66
2023-03-06T10:34:28.896Z,987.57
2023-03-06T10:35:30.650Z,987.55
2023-03-06T10:36:29.979Z,987.55
2023-03-06T10:37:30.091Z,987.55
2023-03-06T10:38:28.871Z,987.53
2023-03-06T10:39:28.862Z,987.61
2023-03-06T10:40:28.843Z,987.62
2023-03-06T10:41:28.876Z,987.58
2023-03-06T10:42:29.014Z,987.55
2023-03-06T10:43:28.799Z,987.58
2023-03-06T10:44:28.800Z,987.58
2023-03-06T10:45:35.170Z,987.61
2023-03-06T10:46:29.835Z,987.55
2023-03-06T10:47:28.769Z,987.53
2023-03-06T10:48:28.797Z,987.58
2023-03-06T10:49:28.754Z,987.56
2023-03-06T10:50:28.709Z,987.59
2023-03-06T10:51:28.710Z,987.60
2023-03-06T10:52:28.687Z,987.54
2023-03-06T10:53:28.697Z,987.54
2023-03-06T10:54:28.688Z,987.49
2023-03-06T10:55:28.648Z,987.48
2023-03-06T10:56:28.658Z,987.49
2023-03-06T10:57:28.686Z,987.47
2023-03-06T10:58:28.628Z,987.50
2023-03-06T10:59:28.634Z,987.49
2023-03-06T11:00:28.590Z,987.48
2023-03-06T11:01:28.620Z,987.46
2023-03-06T11:02:28.608Z,987.40
2023-03-06T11:03:28.585Z,987.47
2023-03-06T11:04:28.631Z,987.50
2023-03-06T11:05:28.530Z,987.48
2023-03-06T11:06:28.513Z,987.47
2023-03-06T11:07:28.532Z,987.41
2023-03-06T11:08:28.592Z,987.40
2023-03-06T11:09:28.513Z,987.39
2023-03-06T11:10:28.491Z,987.39
2023-03-06T11:11:37.533Z,987.41
2023-03-06T11:12:29.439Z,987.42
2023-03-06T11:13:28.438Z,987.41
2023-03-06T11:14:28.462Z,987.45
2023-03-06T11:15:28.437Z,987.35
2023-03-06T11:16:28.649Z,987.32
2023-03-06T11:17:28.411Z,987.32
2023-03-06T11:18:28.380Z,987.36
2023-03-06T11:19:28.363Z,987.37
2023-03-06T11:20:31.769Z,987.36
2023-03-06T11:21:31.368Z,987.32
2023-03-06T11:22:28.375Z,987.38
2023-03-06T11:23:28.322Z,987.36
2023-03-06T11:24:28.317Z,987.32
2023-03-06T11:25:28.282Z,987.32
2023-03-06T11:26:28.293Z,987.30
2023-03-06T11:27:28.584Z,987.26
2023-03-06T11:28:28.294Z,987.32
2023-03-06T11:29:29.361Z,987.29
2023-03-06T11:30:28.225Z,987.22
2023-03-06T11:31:28.288Z,987.24
2023-03-06T11:32:28.271Z,987.23
2023-03-06T11:33:28.259Z,987.18
2023-03-06T11:34:28.189Z,987.17
2023-03-06T11:35:28.183Z,987.18
2023-03-06T11:36:28.164Z,987.21
2023-03-06T11:37:28.164Z,987.12
2023-03-06T11:38:28.163Z,987.07
2023-03-06T11:39:28.123Z,987.09
2023-03-06T11:40:28.115Z,987.06
2023-03-06T11:41:28.102Z,987.07
2023-03-06T11:42:28.121Z,987.06
2023-03-06T11:43:28.074Z,987.05
2023-03-06T11:44:28.082Z,987.06
2023-03-06T11:45:28.053Z,986.99
2023-03-06T11:46:28.104Z,987.01
2023-03-06T11:47:28.030Z,987.02
2023-03-06T11:48:28.014Z,987.01
2023-03-06T11:49:28.045Z,987.02
2023-03-06T11:50:27.993Z,986.98
2023-03-06T11:51:27.997Z,986.96
2023-03-06T11:52:27.963Z,986.96
2023-03-06T11:53:27.964Z,986.93
2023-03-06T11:54:27.975Z,986.91
2023-03-06T11:55:27.978Z,986.88
2023-03-06T11:56:29.460Z,986.90
2023-03-06T11:57:27.897Z,986.89
2023-03-06T11:58:27.914Z,986.90
2023-03-06T11:59:27.898Z,986.84
2023-03-06T12:00:27.869Z,986.83
2023-03-06T12:01:27.909Z,986.83
2023-03-06T12:02:27.880Z,986.86
2023-03-06T12:03:27.882Z,986.84
2023-03-06T12:04:27.822Z,986.87
2023-03-06T12:05:27.881Z,986.89
2023-03-06T12:06:27.851Z,986.86
2023-03-06T12:07:27.793Z,986.84
2023-03-06T12:08:27.789Z,986.87
2023-03-06T12:09:27.783Z,986.86
2023-03-06T12:10:27.761Z,986.79
2023-03-06T12:11:28.752Z,986.79
2023-03-06T12:12:27.753Z,986.79
2023-03-06T12:13:27.791Z,986.73
2023-03-06T12:14:27.726Z,986.73
2023-03-06T12:15:27.727Z,986.75
2023-03-06T12:16:27.694Z,986.76
2023-03-06T12:17:27.715Z,986.72
2023-03-06T12:18:27.695Z,986.73
2023-03-06T12:19:27.644Z,986.64
2023-03-06T12:20:27.655Z,986.66
2023-03-06T12:21:27.670Z,986.68
2023-03-06T12:22:29.131Z,986.62
2023-03-06T12:23:27.679Z,986.63
2023-03-06T12:24:27.594Z,986.55
2023-03-06T12:25:27.577Z,986.58
2023-03-06T12:26:27.579Z,986.61
2023-03-06T12:27:27.564Z,986.55
2023-03-06T12:28:27.580Z,986.58